createdAt,value
2022-10-20T00:01:28.599Z,100.00
2022-10-20T00:03:56.262Z,100.00
2022-10-20T00:06:29.296Z,100.00
2022-10-20T00:08:59.374Z,100.00
2022-10-20T00:11:27.333Z,100.00
2022-10-20T00:13:56.679Z,100.00
2022-10-20T00:16:26.138Z,100.00
2022-10-20T00:18:53.457Z,100.00
2022-10-20T00:21:24.250Z,100.00
2022-10-20T00:23:52.334Z,100.00
2022-10-20T00:26:28.039Z,100.00
2022-10-20T00:28:56.233Z,100.00
2022-10-20T00:31:25.075Z,100.00
2022-10-20T00:33:52.873Z,100.00
2022-10-20T00:36:22.249Z,100.00
2022-10-20T00:38:50.092Z,100.00
2022-10-20T00:41:20.156Z,100.00
2022-10-20T00:43:54.023Z,100.00
2022-10-20T00:46:30.409Z,100.00
2022-10-20T00:49:06.933Z,100.00
2022-10-20T00:51:35.217Z,100.00
2022-10-20T00:54:11.976Z,100.00
2022-10-20T00:56:43.598Z,100.00
2022-10-20T00:59:13.364Z,100.00
2022-10-20T01:01:42.531Z,100.00
2022-10-20T01:04:10.335Z,100.00
2022-10-20T01:06:38.587Z,100.00
2022-10-20T01:09:06.317Z,100.00
2022-10-20T01:12:08.864Z,100.00
2022-10-20T01:15:02.325Z,100.00
2022-10-20T01:17:43.399Z,100.00
2022-10-20T01:20:44.200Z,100.00
2022-10-20T01:23:30.321Z,100.00
2022-10-20T01:26:00.402Z,100.00
2022-10-20T01:28:40.857Z,100.00
2022-10-20T01:31:29.272Z,100.00
2022-10-20T01:34:11.986Z,100.00
2022-10-20T01:36:47.518Z,100.00
2022-10-20T01:39:25.617Z,100.00
2022-10-20T01:42:00.803Z,100.00
2022-10-20T01:44:30.989Z,100.00
2022-10-20T01:46:59.216Z,100.00
2022-10-20T01:49:27.306Z,100.00
2022-10-20T01:51:56.255Z,100.00
2022-10-20T01:54:28.760Z,100.00
2022-10-20T01:57:23.518Z,100.00
2022-10-20T02:00:02.763Z,100.00
2022-10-20T02:02:43.539Z,100.00
2022-10-20T02:05:28.766Z,100.00
2022-10-20T02:08:05.813Z,100.00
2022-10-20T02:10:43.529Z,100.00
2022-10-20T02:13:12.667Z,100.00
2022-10-20T02:15:47.166Z,100.00
2022-10-20T02:18:20.616Z,100.00
2022-10-20T02:20:51.733Z,100.00
2022-10-20T02:23:19.199Z,100.00
2022-10-20T02:25:50.050Z,100.00
2022-10-20T02:28:18.035Z,100.00
2022-10-20T02:30:46.698Z,100.00
2022-10-20T02:33:16.288Z,100.00
2022-10-20T02:35:51.510Z,100.00
2022-10-20T02:38:18.726Z,100.00
2022-10-20T02:40:46.587Z,100.00
2022-10-20T02:43:13.949Z,100.00
2022-10-20T02:45:41.557Z,100.00
2022-10-20T02:48:11.857Z,100.00
2022-10-20T02:50:39.271Z,100.00
2022-10-20T02:53:06.505Z,100.00
2022-10-20T02:55:33.842Z,100.00
2022-10-20T02:58:00.972Z,100.00
2022-10-20T03:00:31.132Z,100.00
2022-10-20T03:02:58.390Z,100.00
2022-10-20T03:05:27.115Z,100.00
2022-10-20T03:07:54.279Z,100.00
2022-10-20T03:10:21.977Z,100.00
2022-10-20T03:12:49.103Z,100.00
2022-10-20T03:15:16.768Z,100.00
2022-10-20T03:17:43.865Z,100.00
2022-10-20T03:20:11.418Z,100.00
2022-10-20T03:22:38.563Z,100.00
2022-10-20T03:25:06.267Z,100.00
2022-10-20T03:27:33.670Z,100.00
2022-10-20T03:30:01.203Z,100.00
2022-10-20T03:32:28.402Z,100.00
2022-10-20T03:34:55.790Z,100.00
2022-10-20T03:37:22.911Z,100.00
2022-10-20T03:39:50.258Z,100.00
2022-10-20T03:42:17.502Z,100.00
2022-10-20T03:44:45.261Z,100.00
2022-10-20T03:47:13.368Z,100.00
2022-10-20T03:49:41.004Z,100.00
2022-10-20T03:52:08.263Z,100.00
2022-10-20T03:54:36.956Z,100.00
2022-10-20T03:57:07.002Z,100.00
2022-10-20T03:59:35.344Z,100.00
2022-10-20T04:02:03.029Z,100.00
2022-10-20T04:04:30.440Z,100.00
2022-10-20T04:06:57.603Z,100.00
2022-10-20T04:09:25.014Z,100.00
2022-10-20T04:11:52.148Z,100.00
2022-10-20T04:14:19.770Z,100.00
2022-10-20T04:16:46.898Z,100.00
2022-10-20T04:19:14.255Z,100.00
2022-10-20T04:21:41.442Z,100.00
2022-10-20T04:24:08.834Z,100.00
2022-10-20T04:26:35.991Z,100.00
2022-10-20T04:29:03.570Z,100.00
2022-10-20T04:31:30.736Z,100.00
2022-10-20T04:33:58.108Z,100.00
2022-10-20T04:36:25.318Z,100.00
2022-10-20T04:38:52.656Z,100.00
2022-10-20T04:41:19.818Z,100.00
2022-10-20T04:43:52.134Z,100.00
2022-10-20T04:46:19.838Z,100.00
2022-10-20T04:48:47.218Z,100.00
2022-10-20T04:51:15.650Z,100.00
2022-10-20T04:53:43.181Z,100.00
2022-10-20T04:56:13.965Z,100.00
2022-10-20T04:58:41.260Z,100.00
2022-10-20T05:01:10.152Z,100.00
2022-10-20T05:03:37.591Z,100.00
2022-10-20T05:06:20.001Z,100.00
2022-10-20T05:08:49.131Z,100.00
2022-10-20T05:11:16.875Z,100.00
2022-10-20T05:13:45.116Z,100.00
2022-10-20T05:16:13.108Z,100.00
2022-10-20T05:18:40.962Z,100.00
2022-10-20T05:21:14.013Z,100.00
2022-10-20T05:23:42.501Z,100.00
2022-10-20T05:26:12.495Z,100.00
2022-10-20T05:28:42.666Z,100.00
2022-10-20T05:31:09.998Z,100.00
2022-10-20T05:33:38.266Z,100.00
2022-10-20T05:36:18.031Z,100.00
2022-10-20T05:38:49.318Z,100.00
2022-10-20T05:41:18.946Z,100.00
2022-10-20T05:44:00.916Z,100.00
2022-10-20T05:46:30.729Z,100.00
2022-10-20T05:49:01.311Z,100.00
2022-10-20T05:51:31.311Z,100.00
2022-10-20T05:53:59.540Z,100.00
2022-10-20T05:56:28.476Z,100.00
2022-10-20T05:58:57.138Z,100.00
2022-10-20T06:01:38.916Z,100.00
2022-10-20T06:04:08.606Z,100.00
2022-10-20T06:06:36.338Z,100.00
2022-10-20T06:09:07.024Z,100.00
2022-10-20T06:11:39.296Z,100.00
2022-10-20T06:14:10.596Z,100.00
2022-10-20T06:16:38.412Z,100.00
2022-10-20T06:19:07.269Z,100.00
2022-10-20T06:21:35.533Z,100.00
2022-10-20T06:24:05.025Z,100.00
2022-10-20T06:26:33.961Z,96.69
2022-10-20T06:29:04.696Z,92.50
2022-10-20T06:31:33.782Z,87.07
2022-10-20T06:34:04.145Z,72.20
2022-10-20T06:36:31.259Z,60.22
2022-10-20T06:38:59.409Z,52.78
2022-10-20T06:41:28.532Z,48.34
2022-10-20T06:43:59.278Z,46.54
2022-10-20T06:46:32.168Z,43.89
2022-10-20T06:49:08.168Z,41.53
2022-10-20T06:51:36.247Z,38.37
2022-10-20T06:54:05.119Z,37.80
2022-10-20T06:56:34.573Z,37.45
2022-10-20T06:59:03.300Z,36.25
2022-10-20T07:01:33.307Z,34.45
2022-10-20T07:04:03.435Z,34.22
2022-10-20T07:06:35.702Z,37.71
2022-10-20T07:09:04.774Z,41.49
2022-10-20T07:11:32.317Z,45.71
2022-10-20T07:14:01.166Z,48.85
2022-10-20T07:16:30.710Z,52.48
2022-10-20T07:18:58.431Z,52.99
2022-10-20T07:21:32.298Z,50.81
2022-10-20T07:24:05.228Z,42.11
2022-10-20T07:26:35.137Z,36.57
2022-10-20T07:29:03.942Z,32.76
2022-10-20T07:31:40.401Z,37.57
2022-10-20T07:34:27.244Z,41.12
2022-10-20T07:36:56.759Z,45.78
2022-10-20T07:39:24.238Z,48.00
2022-10-20T07:41:51.495Z,50.06
2022-10-20T07:44:19.733Z,48.25
2022-10-20T07:46:47.039Z,42.80
2022-10-20T07:49:43.062Z,39.60
2022-10-20T07:52:01.556Z,35.40
2022-10-20T07:54:29.110Z,34.44
2022-10-20T07:56:56.395Z,34.73
2022-10-20T07:59:24.530Z,32.00
2022-10-20T08:01:54.735Z,32.15
2022-10-20T08:04:23.581Z,31.49
2022-10-20T08:06:50.815Z,32.67
2022-10-20T08:09:18.168Z,34.75
2022-10-20T08:11:45.354Z,31.90
2022-10-20T08:14:12.733Z,30.93
2022-10-20T08:16:39.903Z,30.54
2022-10-20T08:19:20.774Z,30.20
2022-10-20T08:21:47.908Z,29.71
2022-10-20T08:24:15.252Z,29.80
2022-10-20T08:26:42.451Z,28.67
2022-10-20T08:29:09.997Z,28.12
2022-10-20T08:31:37.120Z,28.13
2022-10-20T08:34:04.842Z,27.29
2022-10-20T08:36:32.001Z,27.94
2022-10-20T08:39:03.453Z,27.90
2022-10-20T08:44:35.958Z,31.72
2022-10-20T08:47:05.660Z,31.67
2022-10-20T08:49:35.132Z,31.80
2022-10-20T08:52:02.470Z,31.84
2022-10-20T08:54:34.175Z,34.81
2022-10-20T08:57:01.337Z,35.27
2022-10-20T08:59:39.718Z,38.58
2022-10-20T09:02:15.711Z,40.41
2022-10-20T09:04:47.734Z,37.10
2022-10-20T09:07:34.623Z,33.79
2022-10-20T09:10:21.072Z,31.32
2022-10-20T09:12:49.521Z,32.09
2022-10-20T09:15:18.755Z,31.24
2022-10-20T09:18:00.785Z,30.82
2022-10-20T09:20:56.037Z,30.26
2022-10-20T09:23:44.783Z,30.05
2022-10-20T09:26:57.574Z,29.06
2022-10-20T09:29:35.872Z,29.23
2022-10-20T09:32:27.304Z,29.15
2022-10-20T09:34:50.718Z,29.16
2022-10-20T09:37:20.050Z,29.15
2022-10-20T09:39:50.209Z,28.54
2022-10-20T09:42:25.468Z,29.34
2022-10-20T09:44:56.853Z,29.94
2022-10-20T09:47:25.256Z,29.54
2022-10-20T09:50:05.756Z,30.78
2022-10-20T09:52:47.827Z,29.59
2022-10-20T09:55:30.762Z,30.30
2022-10-20T09:58:01.554Z,28.81
2022-10-20T10:00:44.614Z,29.70
2022-10-20T10:03:22.671Z,29.31
2022-10-20T10:05:52.568Z,28.15
2022-10-20T10:08:22.768Z,29.26
2022-10-20T10:10:59.937Z,29.16
2022-10-20T10:13:30.867Z,28.40
2022-10-20T10:16:08.262Z,27.58
2022-10-20T10:18:37.852Z,28.07
2022-10-20T10:21:08.638Z,29.35
2022-10-20T10:23:49.764Z,32.56
2022-10-20T10:26:45.383Z,34.62
2022-10-20T10:29:28.527Z,32.59
2022-10-20T10:32:01.831Z,30.76
2022-10-20T10:34:44.032Z,30.54
2022-10-20T10:37:14.271Z,31.28
2022-10-20T10:39:42.368Z,33.25
2022-10-20T10:42:22.383Z,35.88
2022-10-20T10:45:07.866Z,37.15
2022-10-20T10:47:50.378Z,40.11
2022-10-20T10:50:51.763Z,41.38
2022-10-20T10:53:37.151Z,40.60
2022-10-20T10:56:19.713Z,38.15
2022-10-20T10:59:20.240Z,33.11
2022-10-20T11:02:52.994Z,33.31
2022-10-20T11:05:24.205Z,37.10
2022-10-20T11:08:09.882Z,38.87
2022-10-20T11:11:02.834Z,47.69
2022-10-20T11:13:44.201Z,46.36
2022-10-20T11:16:36.415Z,46.30
2022-10-20T11:19:49.191Z,47.32
2022-10-20T11:22:46.580Z,47.15
2022-10-20T11:25:22.666Z,49.23
2022-10-20T11:27:50.803Z,50.71
2022-10-20T11:30:21.357Z,49.04
2022-10-20T11:32:58.528Z,49.65
2022-10-20T11:35:57.017Z,50.00
2022-10-20T11:38:36.045Z,49.17
2022-10-20T11:41:08.263Z,50.04
2022-10-20T11:43:48.069Z,51.98
2022-10-20T11:46:26.801Z,49.80
2022-10-20T11:48:56.118Z,49.50
2022-10-20T11:51:31.530Z,50.50
2022-10-20T11:54:24.696Z,50.95
2022-10-20T11:57:33.524Z,51.88
2022-10-20T12:00:28.590Z,52.45
2022-10-20T12:03:25.852Z,53.75
2022-10-20T12:06:14.558Z,53.69
2022-10-20T12:08:41.915Z,53.72
2022-10-20T12:11:09.057Z,54.42
2022-10-20T12:13:52.283Z,56.43
2022-10-20T12:16:53.736Z,57.04
2022-10-20T12:19:28.671Z,58.69
2022-10-20T12:22:06.931Z,58.60
2022-10-20T12:24:50.343Z,57.63
2022-10-20T12:27:22.375Z,57.63
2022-10-20T12:29:51.451Z,60.10
2022-10-20T12:32:21.728Z,58.38
2022-10-20T12:34:55.396Z,59.40
2022-10-20T12:37:28.679Z,57.73
2022-10-20T12:40:18.612Z,57.47
2022-10-20T12:42:52.948Z,59.66
2022-10-20T12:45:20.246Z,60.54
2022-10-20T12:48:00.221Z,60.77
2022-10-20T12:50:50.814Z,60.83
2022-10-20T12:53:18.213Z,61.18
2022-10-20T12:55:54.119Z,60.16
2022-10-20T12:58:22.507Z,59.50
2022-10-20T13:00:49.770Z,58.49
2022-10-20T13:03:55.038Z,60.41
2022-10-20T13:06:30.214Z,59.79
2022-10-20T13:09:03.930Z,60.53
2022-10-20T13:11:44.743Z,60.67
2022-10-20T13:14:33.255Z,60.06
2022-10-20T13:17:16.159Z,60.09
2022-10-20T13:19:46.582Z,60.28
2022-10-20T13:22:48.553Z,61.21
2022-10-20T13:25:36.385Z,61.24
2022-10-20T13:28:16.042Z,62.83
2022-10-20T13:30:56.068Z,63.21
2022-10-20T13:33:58.400Z,62.59
2022-10-20T13:36:34.009Z,63.74
2022-10-20T13:39:30.799Z,63.93
2022-10-20T13:42:22.787Z,63.63
2022-10-20T13:45:26.935Z,63.37
2022-10-20T13:48:12.720Z,63.43
2022-10-20T13:50:44.177Z,62.95
2022-10-20T13:53:28.488Z,62.80
2022-10-20T13:56:17.054Z,62.58
2022-10-20T13:59:06.292Z,62.13
2022-10-20T14:01:36.457Z,62.77
2022-10-20T14:04:34.024Z,61.91
2022-10-20T14:07:17.325Z,63.87
2022-10-20T14:09:47.641Z,63.44
2022-10-20T14:12:23.577Z,63.28
2022-10-20T14:14:51.336Z,64.09
2022-10-20T14:17:23.962Z,62.91
2022-10-20T14:20:07.722Z,63.54
2022-10-20T14:22:35.710Z,62.87
2022-10-20T14:25:05.529Z,61.36
2022-10-20T14:27:36.716Z,63.08
2022-10-20T14:30:05.654Z,64.07
2022-10-20T14:32:39.338Z,63.24
2022-10-20T14:35:18.964Z,64.59
2022-10-20T14:38:05.958Z,67.07
2022-10-20T14:40:35.517Z,66.14
2022-10-20T14:43:43.452Z,62.56
2022-10-20T14:46:13.159Z,62.89
2022-10-20T14:48:49.304Z,64.32
2022-10-20T14:51:40.346Z,64.61
2022-10-20T14:54:19.558Z,65.99
2022-10-20T14:56:53.706Z,65.01
2022-10-20T14:59:27.129Z,64.76
2022-10-20T15:02:12.961Z,65.46
2022-10-20T15:04:45.306Z,65.32
2022-10-20T15:07:33.452Z,66.74
2022-10-20T15:10:09.045Z,68.35
2022-10-20T15:12:36.575Z,67.38
2022-10-20T15:15:29.490Z,68.21
2022-10-20T15:18:18.411Z,69.30
2022-10-20T15:20:47.915Z,69.44
2022-10-20T15:23:15.341Z,70.26
2022-10-20T15:25:45.429Z,70.61
2022-10-20T15:28:34.279Z,71.31
2022-10-20T15:31:04.460Z,71.66
2022-10-20T15:33:32.145Z,71.67
2022-10-20T15:36:01.748Z,72.00
2022-10-20T15:38:29.141Z,72.64
2022-10-20T15:40:56.617Z,73.77
2022-10-20T15:43:25.825Z,73.75
2022-10-20T15:45:55.230Z,73.79
2022-10-20T15:48:26.035Z,74.87
2022-10-20T15:50:54.706Z,75.28
2022-10-20T15:53:21.934Z,75.39
2022-10-20T15:55:49.283Z,76.46
2022-10-20T15:58:16.761Z,77.35
2022-10-20T16:00:44.331Z,77.51
2022-10-20T16:03:18.117Z,77.42
2022-10-20T16:05:47.077Z,78.32
2022-10-20T16:10:43.765Z,79.50
2022-10-20T16:13:11.898Z,80.66
2022-10-20T16:15:39.399Z,82.15
2022-10-20T16:18:09.604Z,82.66
2022-10-20T16:20:37.489Z,83.84
2022-10-20T16:23:04.645Z,84.35
2022-10-20T16:25:32.194Z,85.20
2022-10-20T16:27:59.362Z,85.35
2022-10-20T16:30:26.843Z,85.45
2022-10-20T16:32:54.378Z,86.74
2022-10-20T16:35:22.645Z,87.58
2022-10-20T16:37:49.968Z,87.65
2022-10-20T16:40:17.498Z,89.04
2022-10-20T16:42:44.604Z,90.16
2022-10-20T16:45:12.096Z,90.07
2022-10-20T16:47:40.007Z,90.69
2022-10-20T16:50:08.523Z,91.44
2022-10-20T16:52:35.733Z,92.10
2022-10-20T16:55:03.250Z,92.34
2022-10-20T16:57:38.202Z,93.35
2022-10-20T17:00:08.400Z,93.03
2022-10-20T17:02:36.598Z,93.16
2022-10-20T17:05:08.196Z,94.26
2022-10-20T17:07:37.113Z,94.34
2022-10-20T17:10:05.312Z,95.43
2022-10-20T17:12:32.530Z,95.80
2022-10-20T17:14:59.916Z,96.14
2022-10-20T17:17:27.064Z,97.71
2022-10-20T17:19:54.657Z,96.75
2022-10-20T17:22:21.882Z,98.26
2022-10-20T17:24:49.308Z,99.13
2022-10-20T17:27:16.441Z,100.00
2022-10-20T17:29:43.831Z,97.87
2022-10-20T17:32:14.346Z,99.99
2022-10-20T17:34:44.754Z,99.88
2022-10-20T17:37:11.901Z,99.98
2022-10-20T17:39:39.360Z,100.00
2022-10-20T17:42:06.524Z,100.00
2022-10-20T17:44:33.900Z,100.00
2022-10-20T17:47:04.415Z,99.34
2022-10-20T17:49:31.848Z,100.00
2022-10-20T17:51:59.091Z,100.00
2022-10-20T17:54:26.435Z,100.00
2022-10-20T17:56:53.683Z,100.00
2022-10-20T17:59:21.061Z,100.00
2022-10-20T18:01:48.290Z,100.00
2022-10-20T18:04:17.318Z,100.00
2022-10-20T18:06:45.639Z,100.00
2022-10-20T18:09:15.880Z,100.00
2022-10-20T18:11:46.348Z,100.00
2022-10-20T18:14:13.956Z,100.00
2022-10-20T18:16:41.284Z,100.00
2022-10-20T18:19:14.423Z,100.00
2022-10-20T18:21:41.903Z,100.00
2022-10-20T18:24:12.106Z,100.00
2022-10-20T18:26:39.466Z,100.00
2022-10-20T18:29:09.366Z,100.00
2022-10-20T18:31:38.396Z,100.00
2022-10-20T18:34:09.195Z,100.00
2022-10-20T18:36:40.403Z,100.00
2022-10-20T18:39:11.053Z,100.00
2022-10-20T18:41:40.663Z,100.00
2022-10-20T18:44:12.126Z,100.00
2022-10-20T18:46:39.965Z,100.00
2022-10-20T18:49:09.214Z,100.00
2022-10-20T18:51:37.100Z,100.00
2022-10-20T18:54:06.397Z,100.00
2022-10-20T18:56:34.615Z,100.00
2022-10-20T18:59:04.476Z,100.00
2022-10-20T19:01:35.366Z,100.00
2022-10-20T19:04:04.494Z,100.00
2022-10-20T19:06:34.674Z,100.00
2022-10-20T19:09:23.643Z,100.00
2022-10-20T19:14:23.463Z,100.00
2022-10-20T19:16:51.168Z,100.00
2022-10-20T19:19:18.523Z,100.00
2022-10-20T19:21:47.122Z,100.00
2022-10-20T19:24:20.726Z,100.00
2022-10-20T19:27:02.210Z,100.00
2022-10-20T19:29:35.649Z,100.00
2022-10-20T19:32:05.388Z,100.00
2022-10-20T19:34:39.400Z,100.00
2022-10-20T19:37:07.302Z,100.00
2022-10-20T19:39:38.234Z,100.00
2022-10-20T19:42:06.932Z,100.00
2022-10-20T19:44:34.744Z,100.00
2022-10-20T19:47:02.374Z,100.00
2022-10-20T19:49:29.747Z,100.00
2022-10-20T19:51:57.018Z,100.00
2022-10-20T19:54:24.669Z,100.00
2022-10-20T19:56:52.005Z,100.00
2022-10-20T19:59:19.482Z,100.00
2022-10-20T20:01:49.663Z,100.00
2022-10-20T20:04:17.301Z,100.00
2022-10-20T20:06:44.796Z,100.00
2022-10-20T20:09:15.526Z,100.00
2022-10-20T20:11:43.526Z,100.00
2022-10-20T20:14:16.881Z,100.00
2022-10-20T20:16:46.190Z,100.00
2022-10-20T20:19:15.933Z,100.00
2022-10-20T20:21:43.181Z,100.00
2022-10-20T20:24:12.749Z,100.00
2022-10-20T20:26:40.046Z,100.00
2022-10-20T20:29:07.516Z,100.00
2022-10-20T20:31:34.699Z,100.00
2022-10-20T20:34:02.066Z,100.00
2022-10-20T20:36:29.283Z,100.00
2022-10-20T20:38:58.402Z,100.00
2022-10-20T20:41:28.247Z,100.00
2022-10-20T20:43:55.955Z,100.00
2022-10-20T20:46:24.871Z,100.00
2022-10-20T20:48:52.301Z,100.00
2022-10-20T20:51:19.491Z,100.00
2022-10-20T20:53:47.130Z,100.00
2022-10-20T20:56:16.844Z,100.00
2022-10-20T20:58:49.137Z,100.00
2022-10-20T21:01:21.625Z,100.00
2022-10-20T21:03:54.384Z,100.00
2022-10-20T21:06:25.700Z,100.00
2022-10-20T21:09:01.665Z,100.00
2022-10-20T21:11:28.966Z,100.00
2022-10-20T21:13:59.054Z,100.00
2022-10-20T21:16:28.607Z,100.00
2022-10-20T21:19:01.732Z,100.00
2022-10-20T21:21:31.474Z,100.00
2022-10-20T21:24:00.934Z,100.00
2022-10-20T21:26:30.250Z,100.00
2022-10-20T21:28:58.240Z,100.00
2022-10-20T21:31:27.461Z,100.00
2022-10-20T21:33:57.473Z,100.00
2022-10-20T21:36:26.159Z,100.00
2022-10-20T21:38:54.226Z,100.00
2022-10-20T21:41:24.180Z,100.00
2022-10-20T21:43:54.123Z,100.00
2022-10-20T21:46:22.462Z,100.00
2022-10-20T21:48:52.903Z,100.00
2022-10-20T21:51:24.050Z,100.00
2022-10-20T21:53:59.816Z,100.00
2022-10-20T21:56:27.584Z,100.00
2022-10-20T21:58:55.195Z,100.00
2022-10-20T22:01:24.744Z,100.00
2022-10-20T22:03:53.945Z,100.00
2022-10-20T22:06:26.162Z,100.00
2022-10-20T22:08:56.101Z,100.00
2022-10-20T22:11:35.149Z,100.00
2022-10-20T22:14:02.650Z,100.00
2022-10-20T22:16:32.438Z,100.00
2022-10-20T22:19:07.134Z,100.00
2022-10-20T22:21:40.005Z,100.00
2022-10-20T22:24:07.829Z,100.00
2022-10-20T22:26:35.919Z,100.00
2022-10-20T22:29:05.198Z,100.00
2022-10-20T22:31:32.753Z,100.00
2022-10-20T22:34:00.284Z,100.00
2022-10-20T22:36:29.045Z,100.00
2022-10-20T22:38:56.551Z,100.00
2022-10-20T22:41:23.757Z,100.00
2022-10-20T22:43:51.149Z,100.00
2022-10-20T22:46:18.416Z,100.00
2022-10-20T22:48:46.493Z,100.00
2022-10-20T22:51:13.790Z,100.00
2022-10-20T22:53:42.446Z,100.00
2022-10-20T22:56:19.403Z,100.00
2022-10-20T22:58:48.133Z,100.00
2022-10-20T23:01:20.984Z,100.00
2022-10-20T23:03:48.529Z,100.00
2022-10-20T23:06:18.778Z,100.00
2022-10-20T23:08:49.855Z,100.00
2022-10-20T23:11:19.454Z,100.00
2022-10-20T23:13:47.464Z,100.00
2022-10-20T23:16:15.209Z,100.00
2022-10-20T23:18:42.871Z,100.00
2022-10-20T23:21:10.268Z,100.00
2022-10-20T23:23:38.008Z,100.00
2022-10-20T23:26:06.833Z,100.00
2022-10-20T23:28:35.128Z,100.00
2022-10-20T23:31:07.174Z,100.00
2022-10-20T23:33:34.610Z,100.00
2022-10-20T23:36:01.915Z,100.00
2022-10-20T23:38:29.292Z,100.00
2022-10-20T23:40:56.439Z,100.00
2022-10-20T23:43:24.014Z,100.00
2022-10-20T23:45:51.239Z,100.00
2022-10-20T23:48:18.608Z,100.00
2022-10-20T23:50:45.746Z,100.00
2022-10-20T23:53:13.427Z,100.00
2022-10-20T23:55:40.606Z,100.00
2022-10-20T23:58:07.952Z,100.00
